Time;durP1;ratioP1;P1;durP2;ratioP2;P2;SDS_P1;SDS_P2;PMS_P1;PMS_P2;Temp;Humidity;BMP_temperature;BMP_pressure;BME280_temperature;BME280_humidity;BME280_pressure;Samples;Min_cycle;Max_cycle;Signal;HPM_P1;HPM_P2
2021/03/28 00:01:10;;;;;;;;;;;;;;;5.42;53.52;100171.43;1759448;79;20459;-66
2021/03/28 00:03:46;;;;;;;;;;;;;;;5.40;53.50;100164.97;1756855;79;20261;-66
2021/03/28 00:06:17;;;;;;;;;;;;;;;5.37;53.46;100169.61;1793723;79;20410;-66
2021/03/28 00:09:06;;;;;;;;;;;;;;;5.35;53.54;100169.70;1780515;79;20139;-66
2021/03/28 00:11:36;;;;;;;;;;;;;;;5.35;53.65;100171.47;1788537;80;20470;-66
2021/03/28 00:14:05;;;;;;;;;;;;;;;5.35;53.67;100164.91;1786587;80;20135;-66
2021/03/28 00:16:37;;;;;;;;;;;;;;;5.33;53.82;100165.48;1774875;80;20198;-66
2021/03/28 00:19:08;;;;;;;;;;;;;;;5.30;53.78;100161.30;1760955;79;20153;-65
2021/03/28 00:21:48;;;;;;;;;;;;;;;5.29;53.87;100160.91;1813895;78;20396;-66
2021/03/28 00:24:21;;;;;;;;;;;;;;;5.30;53.83;100167.02;1782900;80;20153;-66
2021/03/28 00:27:10;;;;;;;;;;;;;;;5.29;53.75;100167.95;1775509;80;20172;-66
2021/03/28 00:29:54;;;;;;;;;;;;;;;5.25;53.84;100165.55;1750976;80;20155;-65
2021/03/28 00:32:42;;;;;;;;;;;;;;;5.23;53.86;100170.03;1773888;80;20164;-65
2021/03/28 00:35:16;;;;;;;;;;;;;;;5.22;53.89;100165.75;1782138;80;20150;-65
2021/03/28 00:37:45;;;;;;;;;;;;;;;5.24;53.79;100169.58;1791965;80;20151;-66
2021/03/28 00:40:16;;;;;;;;;;;;;;;5.24;53.78;100170.90;1785790;80;20243;-65
2021/03/28 00:42:48;;;;;;;;;;;;;;;5.25;53.71;100163.38;1762628;80;20167;-65
2021/03/28 00:45:25;;;;;;;;;;;;;;;5.25;53.72;100172.11;1794641;79;20137;-66
2021/03/28 00:48:07;;;;;;;;;;;;;;;5.25;53.68;100166.86;1771864;80;20183;-66
2021/03/28 00:50:37;;;;;;;;;;;;;;;5.23;53.67;100171.34;1760901;80;20228;-65
2021/03/28 00:53:07;;;;;;;;;;;;;;;5.20;53.67;100166.33;1749417;81;20418;-65
2021/03/28 00:55:39;;;;;;;;;;;;;;;5.18;53.69;100172.59;1782218;80;20523;-65
2021/03/28 00:58:17;;;;;;;;;;;;;;;5.16;53.77;100168.78;1774334;79;20257;-65
2021/03/28 01:01:27;;;;;;;;;;;;;;;5.17;54.02;100164.38;1772773;80;20138;-65
2021/03/28 01:04:21;;;;;;;;;;;;;;;5.19;53.89;100176.43;1767984;80;20147;-65
2021/03/28 01:07:17;;;;;;;;;;;;;;;5.18;53.69;100172.14;1781400;79;20258;-65
2021/03/28 01:10:13;;;;;;;;;;;;;;;5.19;53.57;100165.94;1796160;79;20147;-65
2021/03/28 01:13:09;;;;;;;;;;;;;;;5.20;53.56;100170.25;1793150;79;20246;-66
2021/03/28 01:16:02;;;;;;;;;;;;;;;5.21;53.51;100167.98;1784244;79;20139;-66
2021/03/28 01:18:43;;;;;;;;;;;;;;;5.20;53.30;100166.33;1785664;79;20143;-66
2021/03/28 01:21:17;;;;;;;;;;;;;;;5.21;53.25;100167.98;1800301;79;20140;-66
2021/03/28 01:23:45;;;;;;;;;;;;;;;5.22;53.20;100169.68;1778546;79;20146;-66
2021/03/28 01:26:25;;;;;;;;;;;;;;;5.21;53.18;100165.84;1793661;79;20166;-65
2021/03/28 01:28:56;;;;;;;;;;;;;;;5.22;53.07;100168.84;1753500;80;20135;-65
2021/03/28 01:31:31;;;;;;;;;;;;;;;5.24;52.99;100168.27;1779730;79;20242;-66
2021/03/28 01:34:08;;;;;;;;;;;;;;;5.27;52.90;100172.46;1779460;79;20127;-66
2021/03/28 01:36:39;;;;;;;;;;;;;;;5.25;52.76;100172.11;1777023;79;20337;-66
2021/03/28 01:39:24;;;;;;;;;;;;;;;5.23;52.75;100171.34;1791359;79;20426;-66
2021/03/28 01:41:57;;;;;;;;;;;;;;;5.21;52.93;100170.61;1785983;79;20438;-65
2021/03/28 01:44:44;;;;;;;;;;;;;;;5.18;53.17;100183.94;1789613;79;20238;-65
2021/03/28 01:47:38;;;;;;;;;;;;;;;5.15;53.37;100176.27;1775466;79;20166;-66
2021/03/28 01:50:24;;;;;;;;;;;;;;;5.13;53.47;100175.53;1780311;79;20156;-66
2021/03/28 01:52:58;;;;;;;;;;;;;;;5.12;53.62;100180.88;1772710;79;20139;-66
2021/03/28 01:56:03;;;;;;;;;;;;;;;5.13;53.70;100180.77;1773617;79;20138;-66
2021/03/28 01:58:53;;;;;;;;;;;;;;;5.14;53.61;100178.50;1787804;80;20136;-66
2021/03/28 02:01:23;;;;;;;;;;;;;;;5.17;53.46;100187.49;1728055;81;20154;-65
2021/03/28 02:04:07;;;;;;;;;;;;;;;5.18;53.40;100176.52;1767149;80;20250;-66
2021/03/28 02:06:58;;;;;;;;;;;;;;;5.22;53.13;100187.20;1796722;79;20125;-66
2021/03/28 02:09:30;;;;;;;;;;;;;;;5.22;52.93;100180.17;1804048;78;20137;-66
2021/03/28 02:12:11;;;;;;;;;;;;;;;5.23;52.71;100184.94;1774419;80;20163;-66
2021/03/28 02:14:45;;;;;;;;;;;;;;;5.24;52.48;100182.70;1795284;79;20153;-66
2021/03/28 02:17:23;;;;;;;;;;;;;;;5.25;52.43;100181.29;1797379;78;20141;-66
2021/03/28 02:20:11;;;;;;;;;;;;;;;5.28;52.26;100178.09;1782520;80;20434;-66
2021/03/28 02:22:42;;;;;;;;;;;;;;;5.27;52.21;100177.70;1778524;80;20136;-66
2021/03/28 02:25:29;;;;;;;;;;;;;;;5.25;52.11;100177.80;1780948;80;20565;-66
2021/03/28 02:28:32;;;;;;;;;;;;;;;5.24;52.00;100175.66;1796956;79;20149;-67
2021/03/28 02:31:10;;;;;;;;;;;;;;;5.24;51.93;100173.04;1776986;80;20147;-65
2021/03/28 02:33:47;;;;;;;;;;;;;;;5.23;51.95;100173.97;1796102;79;20153;-67
2021/03/28 02:36:23;;;;;;;;;;;;;;;5.24;51.88;100183.53;1771951;80;20246;-67
2021/03/28 02:39:14;;;;;;;;;;;;;;;5.23;51.78;100179.21;1776419;80;20237;-66
2021/03/28 02:42:08;;;;;;;;;;;;;;;5.21;51.75;100170.61;1820400;78;20121;-66
2021/03/28 02:44:56;;;;;;;;;;;;;;;5.21;51.76;100177.16;1776272;80;20234;-66
2021/03/28 02:47:47;;;;;;;;;;;;;;;5.19;51.68;100178.22;1762144;80;20214;-67
2021/03/28 02:50:35;;;;;;;;;;;;;;;5.16;51.62;100174.03;1750228;80;20501;-66
2021/03/28 02:53:18;;;;;;;;;;;;;;;5.15;51.59;100183.30;1787982;79;20478;-65
2021/03/28 02:55:50;;;;;;;;;;;;;;;5.13;51.56;100174.70;1772185;80;20142;-66
2021/03/28 02:58:29;;;;;;;;;;;;;;;5.14;51.62;100169.81;1791173;79;20158;-66
2021/03/28 03:01:26;;;;;;;;;;;;;;;5.16;51.64;100180.59;1789390;79;20128;-66
2021/03/28 03:04:13;;;;;;;;;;;;;;;5.17;51.43;100175.69;1796837;79;20135;-65
2021/03/28 03:06:47;;;;;;;;;;;;;;;5.19;51.32;100169.05;1784067;79;20206;-66
2021/03/28 03:09:40;;;;;;;;;;;;;;;5.19;51.14;100164.62;1797705;79;20159;-66
2021/03/28 03:12:12;;;;;;;;;;;;;;;5.23;50.84;100172.66;1680446;84;20157;-66
2021/03/28 03:15:01;;;;;;;;;;;;;;;5.25;50.65;100177.36;1687953;85;20538;-66
2021/03/28 03:17:58;;;;;;;;;;;;;;;5.27;50.54;100177.70;1731976;79;20143;-66
2021/03/28 03:20:30;;;;;;;;;;;;;;;5.27;50.45;100179.02;1787023;79;20154;-65
2021/03/28 03:23:28;;;;;;;;;;;;;;;5.26;50.33;100176.88;1781746;79;20167;-66
2021/03/28 03:25:59;;;;;;;;;;;;;;;5.25;50.33;100176.49;1761423;80;20126;-66
2021/03/28 03:28:52;;;;;;;;;;;;;;;5.22;50.24;100180.65;1792111;79;20207;-66
2021/03/28 03:31:48;;;;;;;;;;;;;;;5.19;50.23;100184.77;1763442;79;20146;-66
2021/03/28 03:34:39;;;;;;;;;;;;;;;5.19;50.14;100175.12;1783858;79;20147;-65
2021/03/28 03:37:42;;;;;;;;;;;;;;;5.19;49.96;100182.16;1799405;79;20143;-66
2021/03/28 03:40:34;;;;;;;;;;;;;;;5.17;49.89;100177.00;1791276;79;20154;-66
2021/03/28 03:43:40;;;;;;;;;;;;;;;5.15;49.76;100184.13;1794060;79;20195;-66
2021/03/28 03:46:28;;;;;;;;;;;;;;;5.17;49.68;100185.34;1789101;79;20237;-66
2021/03/28 03:49:16;;;;;;;;;;;;;;;5.21;49.60;100182.41;1784325;79;20123;-66
2021/03/28 03:51:48;;;;;;;;;;;;;;;5.23;49.43;100183.14;1770228;80;20180;-66
2021/03/28 03:54:52;;;;;;;;;;;;;;;5.27;49.15;100177.23;1789008;79;20142;-65
2021/03/28 03:57:49;;;;;;;;;;;;;;;5.32;49.05;100175.63;1788838;79;20217;-66
2021/03/28 04:00:31;;;;;;;;;;;;;;;5.37;48.83;100181.41;1794088;79;20143;-66
2021/03/28 04:03:32;;;;;;;;;;;;;;;5.39;48.69;100184.77;1757291;79;20174;-66
2021/03/28 04:06:16;;;;;;;;;;;;;;;5.43;48.47;100187.07;1791169;79;20131;-66
2021/03/28 04:09:20;;;;;;;;;;;;;;;5.49;48.41;100189.75;1757614;79;20151;-66
2021/03/28 04:12:08;;;;;;;;;;;;;;;5.55;48.11;100189.33;1787570;80;20411;-66
2021/03/28 04:14:51;;;;;;;;;;;;;;;5.64;47.92;100188.71;1794737;79;20341;-66
2021/03/28 04:17:41;;;;;;;;;;;;;;;5.71;47.79;100194.39;1755354;79;20151;-66
2021/03/28 04:20:16;;;;;;;;;;;;;;;5.79;47.39;100189.94;1786916;79;20257;-66
2021/03/28 04:22:48;;;;;;;;;;;;;;;5.87;47.22;100195.48;1783920;79;20238;-66
2021/03/28 04:25:42;;;;;;;;;;;;;;;5.94;46.90;100199.86;1782468;79;20146;-66
2021/03/28 04:28:25;;;;;;;;;;;;;;;6.02;46.72;100197.11;1790173;79;20138;-66
2021/03/28 04:30:59;;;;;;;;;;;;;;;6.14;46.28;100201.14;1724638;79;20147;-65
2021/03/28 04:33:48;;;;;;;;;;;;;;;6.25;46.24;100199.91;1794232;79;20250;-65
2021/03/28 04:36:25;;;;;;;;;;;;;;;6.34;45.84;100201.89;1782720;79;20262;-65
2021/03/28 04:38:56;;;;;;;;;;;;;;;6.48;45.55;100206.16;1776612;79;20123;-66
2021/03/28 04:41:33;;;;;;;;;;;;;;;6.60;45.35;100203.98;1783816;79;20174;-66
2021/03/28 04:44:07;;;;;;;;;;;;;;;6.74;45.08;100208.23;1791302;79;20172;-66
2021/03/28 04:47:08;;;;;;;;;;;;;;;6.93;44.92;100209.05;1758262;80;20239;-66
2021/03/28 04:49:55;;;;;;;;;;;;;;;7.10;44.85;100213.08;1783538;79;20253;-66
2021/03/28 04:52:59;;;;;;;;;;;;;;;7.29;44.58;100205.14;1784553;79;20426;-65
2021/03/28 04:56:04;;;;;;;;;;;;;;;7.47;44.24;100204.26;1789966;80;20140;-65
2021/03/28 04:58:48;;;;;;;;;;;;;;;7.68;43.96;100199.98;1776973;80;20143;-66
2021/03/28 05:01:36;;;;;;;;;;;;;;;7.91;43.50;100199.56;1796477;79;20228;-66
2021/03/28 05:04:30;;;;;;;;;;;;;;;8.14;42.96;100207.47;1784716;78;20416;-66
2021/03/28 05:07:33;;;;;;;;;;;;;;;8.38;42.62;100209.13;1767156;80;20127;-66
2021/03/28 05:10:04;;;;;;;;;;;;;;;8.64;42.22;100210.58;1766710;80;20482;-66
2021/03/28 05:12:53;;;;;;;;;;;;;;;8.87;41.71;100208.72;1780275;80;20179;-66
2021/03/28 05:15:40;;;;;;;;;;;;;;;9.06;41.02;100212.02;1780548;80;20513;-66
2021/03/28 05:18:43;;;;;;;;;;;;;;;9.33;40.53;100206.73;1785819;80;20151;-66
2021/03/28 05:21:45;;;;;;;;;;;;;;;9.76;39.93;100206.27;1782492;80;20238;-66
2021/03/28 05:24:37;;;;;;;;;;;;;;;10.35;38.71;100204.78;1765617;80;20246;-66
2021/03/28 05:27:39;;;;;;;;;;;;;;;10.96;37.72;100210.41;1771393;79;20133;-66
2021/03/28 05:30:33;;;;;;;;;;;;;;;11.61;36.75;100202.73;1818980;78;20239;-66
2021/03/28 05:33:16;;;;;;;;;;;;;;;12.34;35.76;100210.07;1772261;80;20227;-66
2021/03/28 05:35:57;;;;;;;;;;;;;;;12.98;34.09;100210.95;1785101;79;20169;-67
2021/03/28 05:38:47;;;;;;;;;;;;;;;13.58;32.92;100201.06;1812708;78;20136;-66
2021/03/28 05:41:40;;;;;;;;;;;;;;;14.15;31.91;100204.56;1820028;78;20128;-67
2021/03/28 05:44:14;;;;;;;;;;;;;;;14.66;30.94;100205.48;1818616;78;20130;-67
2021/03/28 05:47:10;;;;;;;;;;;;;;;15.23;30.50;100211.40;1816586;78;20153;-66
2021/03/28 05:49:59;;;;;;;;;;;;;;;15.76;29.48;100210.57;1796964;79;20440;-67
2021/03/28 05:52:55;;;;;;;;;;;;;;;16.29;28.65;100207.78;1722834;80;20155;-66
2021/03/28 05:56:02;;;;;;;;;;;;;;;16.69;27.49;100211.27;1783356;80;20156;-66
2021/03/28 05:58:45;;;;;;;;;;;;;;;16.99;27.39;100201.28;1778316;80;20250;-66
2021/03/28 06:01:33;;;;;;;;;;;;;;;17.52;26.75;100212.89;1761020;80;20151;-67
2021/03/28 06:04:42;;;;;;;;;;;;;;;18.01;25.99;100211.61;1816818;78;20133;-67
2021/03/28 06:07:31;;;;;;;;;;;;;;;18.49;25.49;100213.92;1805506;78;20177;-69
2021/03/28 06:10:22;;;;;;;;;;;;;;;19.07;24.78;100220.17;1825728;79;20172;-68
2021/03/28 06:12:59;;;;;;;;;;;;;;;19.67;24.03;100222.05;1797092;78;20252;-68
2021/03/28 06:15:59;;;;;;;;;;;;;;;20.16;23.25;100218.51;1795033;78;20173;-68
2021/03/28 06:18:41;;;;;;;;;;;;;;;20.66;22.94;100214.31;1768898;78;20181;-68
2021/03/28 06:21:28;;;;;;;;;;;;;;;21.33;22.47;100223.36;1821116;78;20426;-68
2021/03/28 06:24:15;;;;;;;;;;;;;;;21.86;21.63;100225.27;1780920;78;20243;-68
2021/03/28 06:26:50;;;;;;;;;;;;;;;22.19;21.07;100218.98;1795212;78;20161;-68
2021/03/28 06:29:44;;;;;;;;;;;;;;;22.20;20.98;100221.14;1797745;78;20192;-67
2021/03/28 06:32:25;;;;;;;;;;;;;;;22.32;20.66;100214.64;1821336;78;20405;-68
2021/03/28 06:35:28;;;;;;;;;;;;;;;22.42;20.43;100213.66;1818419;78;20240;-67
2021/03/28 06:38:19;;;;;;;;;;;;;;;22.51;20.85;100206.17;1816136;78;20196;-68
2021/03/28 06:41:09;;;;;;;;;;;;;;;22.83;20.24;100205.16;1817982;78;20159;-68
2021/03/28 06:43:58;;;;;;;;;;;;;;;22.99;19.97;100211.11;1826252;78;20412;-68
2021/03/28 06:47:05;;;;;;;;;;;;;;;23.11;19.91;100212.08;1809861;78;20136;-67
2021/03/28 06:49:42;;;;;;;;;;;;;;;23.22;19.47;100211.91;1826249;78;20905;-67
2021/03/28 06:52:27;;;;;;;;;;;;;;;23.49;19.23;100210.36;1823161;78;20133;-68
2021/03/28 06:55:28;;;;;;;;;;;;;;;23.61;18.96;100208.61;1817388;78;20416;-68
2021/03/28 06:58:05;;;;;;;;;;;;;;;23.88;18.69;100204.33;1754131;80;20139;-68
2021/03/28 07:00:55;;;;;;;;;;;;;;;24.30;18.77;100201.81;1786752;80;20147;-69
2021/03/28 07:03:27;;;;;;;;;;;;;;;24.65;18.32;100198.48;1760236;80;20227;-68
2021/03/28 07:06:04;;;;;;;;;;;;;;;25.02;17.98;100195.69;1770735;80;20179;-67
2021/03/28 07:08:47;;;;;;;;;;;;;;;25.24;17.33;100197.37;1797452;79;20244;-68
2021/03/28 07:11:25;;;;;;;;;;;;;;;25.28;17.21;100203.96;1774778;80;20297;-67
2021/03/28 07:14:02;;;;;;;;;;;;;;;25.63;17.05;100204.00;1763904;80;20159;-68
2021/03/28 07:17:01;;;;;;;;;;;;;;;26.03;16.76;100206.55;1792185;79;20133;-67
2021/03/28 07:19:58;;;;;;;;;;;;;;;26.12;16.16;100202.42;1772137;80;20405;-67
2021/03/28 07:22:47;;;;;;;;;;;;;;;26.01;16.31;100197.30;1765076;80;20228;-67
2021/03/28 07:25:45;;;;;;;;;;;;;;;25.88;16.60;100188.04;1787806;80;20143;-67
2021/03/28 07:28:51;;;;;;;;;;;;;;;26.08;16.35;100185.81;1792215;79;20223;-67
2021/03/28 07:31:57;;;;;;;;;;;;;;;26.14;16.08;100184.84;1764420;80;20138;-68
2021/03/28 07:34:46;;;;;;;;;;;;;;;26.07;16.24;100195.02;1785913;80;20239;-67
2021/03/28 07:37:39;;;;;;;;;;;;;;;26.12;16.05;100188.87;1780675;80;20138;-66
2021/03/28 07:40:16;;;;;;;;;;;;;;;26.17;16.21;100193.05;1726910;78;20161;-68
2021/03/28 07:42:56;;;;;;;;;;;;;;;26.10;16.56;100183.68;1772127;80;20246;-67
2021/03/28 07:45:54;;;;;;;;;;;;;;;26.58;16.10;100191.17;1783767;79;20231;-68
2021/03/28 07:48:57;;;;;;;;;;;;;;;26.79;15.78;100175.31;1810889;78;20121;-68
2021/03/28 07:51:46;;;;;;;;;;;;;;;26.99;15.74;100179.75;1801740;78;20157;-68
2021/03/28 07:54:45;;;;;;;;;;;;;;;27.27;15.27;100181.61;1789500;79;20141;-67
2021/03/28 07:57:36;;;;;;;;;;;;;;;27.50;14.65;100190.66;1807142;78;20133;-67
2021/03/28 08:00:22;;;;;;;;;;;;;;;27.66;14.77;100198.48;1825195;78;20141;-68
2021/03/28 08:03:28;;;;;;;;;;;;;;;27.85;14.13;100181.37;1803565;78;20148;-68
2021/03/28 08:06:07;;;;;;;;;;;;;;;27.80;14.09;100178.61;1788150;78;20385;-68
2021/03/28 08:09:12;;;;;;;;;;;;;;;27.61;13.98;100178.06;1821749;78;20148;-68
2021/03/28 08:11:51;;;;;;;;;;;;;;;27.25;14.15;100181.52;1797919;78;20128;-68
2021/03/28 08:14:35;;;;;;;;;;;;;;;26.99;14.34;100174.83;1790672;79;20157;-67
2021/03/28 08:17:22;;;;;;;;;;;;;;;27.00;14.65;100173.78;1800443;78;20161;-68
2021/03/28 08:20:30;;;;;;;;;;;;;;;27.09;14.03;100174.48;1818565;78;20129;-69
2021/03/28 08:23:01;;;;;;;;;;;;;;;26.81;14.44;100176.70;1825715;78;20153;-68
2021/03/28 08:25:41;;;;;;;;;;;;;;;26.44;14.97;100169.45;1817839;78;20120;-67
2021/03/28 08:28:29;;;;;;;;;;;;;;;26.55;14.74;100165.88;1810925;78;20136;-68
2021/03/28 08:31:21;;;;;;;;;;;;;;;26.76;14.65;100163.04;1801045;78;20125;-67
2021/03/28 08:34:21;;;;;;;;;;;;;;;26.89;14.67;100165.98;1795020;78;20153;-68
2021/03/28 08:37:28;;;;;;;;;;;;;;;27.13;14.52;100168.03;1790354;79;20125;-68
2021/03/28 08:40:18;;;;;;;;;;;;;;;27.23;14.50;100160.07;1820628;78;20148;-68
2021/03/28 08:42:58;;;;;;;;;;;;;;;27.41;14.08;100158.20;1809704;78;20229;-69
2021/03/28 08:45:30;;;;;;;;;;;;;;;27.49;14.02;100152.34;1802825;78;20160;-70
2021/03/28 08:48:31;;;;;;;;;;;;;;;27.64;13.82;100158.53;1792590;79;20129;-69
2021/03/28 08:51:21;;;;;;;;;;;;;;;27.88;13.67;100174.90;1812942;78;20125;-68
2021/03/28 08:54:04;;;;;;;;;;;;;;;27.87;13.71;100160.23;1797791;78;20133;-68
2021/03/28 08:56:48;;;;;;;;;;;;;;;27.86;13.75;100160.75;1788393;79;20158;-68
2021/03/28 08:59:28;;;;;;;;;;;;;;;27.71;13.82;100166.52;1802274;78;20137;-67
2021/03/28 09:02:07;;;;;;;;;;;;;;;27.30;14.10;100151.23;1781316;78;20133;-69
2021/03/28 09:04:54;;;;;;;;;;;;;;;27.42;14.29;100144.89;1774807;78;20222;-68
2021/03/28 09:07:42;;;;;;;;;;;;;;;27.74;13.67;100153.26;1813995;78;20165;-69
2021/03/28 09:10:23;;;;;;;;;;;;;;;27.54;13.82;100151.06;1794850;79;20191;-68
2021/03/28 09:13:26;;;;;;;;;;;;;;;27.23;13.88;100154.64;1821210;78;20145;-69
2021/03/28 09:16:03;;;;;;;;;;;;;;;27.20;14.50;100148.34;1797858;78;20436;-69
2021/03/28 09:18:46;;;;;;;;;;;;;;;27.28;14.29;100145.23;1799504;78;20157;-70
2021/03/28 09:21:36;;;;;;;;;;;;;;;27.28;14.56;100160.16;1793465;79;20156;-69
2021/03/28 09:24:15;;;;;;;;;;;;;;;27.40;14.29;100145.16;1816525;78;20157;-68
2021/03/28 09:26:55;;;;;;;;;;;;;;;27.64;14.28;100148.48;1808248;78;20141;-69
2021/03/28 09:29:36;;;;;;;;;;;;;;;28.06;13.96;100145.28;1806697;78;20232;-68
2021/03/28 09:32:38;;;;;;;;;;;;;;;28.30;13.89;100140.95;1810643;78;20129;-68
2021/03/28 09:35:20;;;;;;;;;;;;;;;28.25;13.62;100134.09;1825745;78;20196;-68
2021/03/28 09:38:14;;;;;;;;;;;;;;;28.09;13.67;100133.08;1795136;78;20153;-70
2021/03/28 09:40:50;;;;;;;;;;;;;;;27.89;13.67;100143.17;1797744;78;20141;-69
2021/03/28 09:43:24;;;;;;;;;;;;;;;27.75;13.74;100134.52;1799305;79;20219;-67
2021/03/28 09:46:01;;;;;;;;;;;;;;;27.84;13.78;100131.65;1796798;78;20141;-68
2021/03/28 09:48:48;;;;;;;;;;;;;;;27.78;13.73;100131.85;1821013;78;20494;-68
2021/03/28 09:51:46;;;;;;;;;;;;;;;27.79;14.15;100113.10;1807209;78;20437;-69
2021/03/28 09:54:51;;;;;;;;;;;;;;;27.81;13.90;100113.67;1825723;78;20140;-68
2021/03/28 09:57:47;;;;;;;;;;;;;;;27.77;13.81;100122.05;1797927;78;20117;-69
2021/03/28 10:00:30;;;;;;;;;;;;;;;27.71;13.85;100112.19;1811758;78;20148;-67
2021/03/28 10:03:22;;;;;;;;;;;;;;;27.67;13.99;100139.84;1825715;78;20145;-68
2021/03/28 10:05:49;;;;;;;;;;;;;;;27.45;14.06;100116.70;1807548;78;20224;-70
2021/03/28 10:08:19;;;;;;;;;;;;;;;27.28;14.56;100117.27;1822586;78;20135;-67
2021/03/28 10:11:05;;;;;;;;;;;;;;;27.27;14.40;100113.75;1790386;78;20254;-68
2021/03/28 10:13:53;;;;;;;;;;;;;;;27.43;14.49;100107.99;1811380;78;20133;-67
2021/03/28 10:16:28;;;;;;;;;;;;;;;27.73;14.05;100111.40;1816548;78;20154;-67
2021/03/28 10:19:09;;;;;;;;;;;;;;;27.54;14.31;100114.95;1819099;78;20133;-67
2021/03/28 10:21:49;;;;;;;;;;;;;;;27.35;14.26;100107.61;1811233;78;20271;-69
2021/03/28 10:24:21;;;;;;;;;;;;;;;27.41;14.67;100106.61;1815941;78;20232;-68
2021/03/28 10:27:15;;;;;;;;;;;;;;;27.20;14.27;100108.98;1796827;78;20125;-67
2021/03/28 10:30:12;;;;;;;;;;;;;;;26.87;14.55;100094.33;1789823;79;20417;-67
2021/03/28 10:32:52;;;;;;;;;;;;;;;26.91;14.71;100091.95;1763975;78;20125;-68
2021/03/28 10:35:27;;;;;;;;;;;;;;;26.87;14.83;100095.69;1807022;78;20429;-68
2021/03/28 10:38:18;;;;;;;;;;;;;;;26.81;14.76;100108.89;1787042;78;20158;-69
2021/03/28 10:41:09;;;;;;;;;;;;;;;26.47;15.30;100089.82;1820698;78;20228;-69
2021/03/28 10:43:53;;;;;;;;;;;;;;;26.04;15.31;100090.36;1821795;78;20132;-69
2021/03/28 10:46:45;;;;;;;;;;;;;;;25.29;16.24;100100.89;1784811;78;20232;-68
2021/03/28 10:49:28;;;;;;;;;;;;;;;24.67;16.63;100093.64;1810532;78;20501;-67
2021/03/28 10:52:17;;;;;;;;;;;;;;;24.20;17.05;100088.34;1826198;78;20496;-68
2021/03/28 10:55:20;;;;;;;;;;;;;;;23.89;17.50;100077.73;1817242;78;20424;-68
2021/03/28 10:58:26;;;;;;;;;;;;;;;23.76;17.92;100074.09;1816519;79;20421;-67
2021/03/28 11:01:15;;;;;;;;;;;;;;;23.85;17.95;100076.00;1826293;79;20144;-66
2021/03/28 11:03:50;;;;;;;;;;;;;;;23.49;18.19;100075.42;1820253;78;20417;-68
2021/03/28 11:06:29;;;;;;;;;;;;;;;22.71;18.98;100103.12;1810840;78;20121;-69
2021/03/28 11:09:17;;;;;;;;;;;;;;;22.09;19.61;100077.23;1815689;78;20137;-68
2021/03/28 11:12:02;;;;;;;;;;;;;;;21.63;20.24;100069.61;1820295;79;20157;-69
2021/03/28 11:15:07;;;;;;;;;;;;;;;21.33;20.75;100065.20;1818235;78;20133;-67
2021/03/28 11:17:44;;;;;;;;;;;;;;;21.29;21.04;100061.28;1819633;78;20516;-67
2021/03/28 11:20:30;;;;;;;;;;;;;;;21.19;21.29;100066.23;1793602;79;20232;-66
2021/03/28 11:23:07;;;;;;;;;;;;;;;20.93;21.36;100062.02;1799810;78;20136;-67
2021/03/28 11:25:39;;;;;;;;;;;;;;;20.71;21.55;100056.53;1816363;78;20141;-67
2021/03/28 11:28:38;;;;;;;;;;;;;;;20.70;22.01;100056.21;1821416;79;20133;-68
2021/03/28 11:31:11;;;;;;;;;;;;;;;20.75;21.66;100053.74;1814566;78;20582;-66
2021/03/28 11:33:49;;;;;;;;;;;;;;;20.80;21.80;100057.14;1824869;78;20145;-68
2021/03/28 11:36:23;;;;;;;;;;;;;;;20.51;21.91;100060.50;1817592;78;20518;-66
2021/03/28 11:39:10;;;;;;;;;;;;;;;20.16;22.48;100051.20;1820326;78;20148;-68
2021/03/28 11:41:47;;;;;;;;;;;;;;;19.99;22.93;100041.34;1815730;78;20202;-67
2021/03/28 11:44:24;;;;;;;;;;;;;;;19.88;23.26;100041.43;1826157;78;20232;-67
2021/03/28 11:46:54;;;;;;;;;;;;;;;19.82;23.15;100048.09;1796421;79;20315;-69
2021/03/28 11:49:24;;;;;;;;;;;;;;;19.80;22.91;100039.42;1806883;78;20125;-68
2021/03/28 11:51:55;;;;;;;;;;;;;;;19.68;22.98;100036.45;1825995;79;20413;-67
2021/03/28 11:54:24;;;;;;;;;;;;;;;19.65;23.26;100043.02;1815897;78;20161;-67
2021/03/28 11:56:55;;;;;;;;;;;;;;;19.63;23.10;100038.38;1816961;78;20214;-68
2021/03/28 11:59:39;;;;;;;;;;;;;;;19.51;23.31;100024.70;1826600;78;20121;-68
2021/03/28 12:02:13;;;;;;;;;;;;;;;19.48;23.37;100025.61;1785776;79;20180;-67
2021/03/28 12:04:50;;;;;;;;;;;;;;;19.48;23.64;100032.31;1805285;78;20137;-68
2021/03/28 12:07:26;;;;;;;;;;;;;;;19.34;23.50;100037.61;1777509;78;20310;-67
2021/03/28 12:10:05;;;;;;;;;;;;;;;19.30;23.68;100038.18;1826643;79;20400;-66
2021/03/28 12:12:49;;;;;;;;;;;;;;;19.34;23.54;100024.69;1826612;78;20263;-68
2021/03/28 12:15:45;;;;;;;;;;;;;;;19.29;23.53;100021.80;1798198;78;20136;-67
2021/03/28 12:18:23;;;;;;;;;;;;;;;19.14;23.61;100032.10;1787614;79;20245;-68
2021/03/28 12:21:05;;;;;;;;;;;;;;;18.84;24.00;100023.95;1815048;78;20141;-68
2021/03/28 12:23:38;;;;;;;;;;;;;;;18.53;24.65;100014.36;1826169;78;20160;-67
2021/03/28 12:26:10;;;;;;;;;;;;;;;18.38;24.92;100012.56;1813836;78;20232;-66
2021/03/28 12:28:48;;;;;;;;;;;;;;;18.41;24.77;100010.86;1788175;79;20475;-66
2021/03/28 12:31:42;;;;;;;;;;;;;;;18.29;24.92;100021.77;1812465;78;20235;-68
2021/03/28 12:34:19;;;;;;;;;;;;;;;18.11;25.16;100005.31;1813236;78;20137;-68
2021/03/28 12:36:51;;;;;;;;;;;;;;;18.14;25.08;100012.94;1806341;79;20161;-67
2021/03/28 12:39:38;;;;;;;;;;;;;;;18.03;24.94;100007.59;1799638;78;20432;-67
2021/03/28 12:42:22;;;;;;;;;;;;;;;17.83;25.48;100005.47;1791990;78;20153;-66
2021/03/28 12:44:52;;;;;;;;;;;;;;;17.53;25.82;100008.69;1797740;78;20228;-68
2021/03/28 12:47:25;;;;;;;;;;;;;;;17.20;26.24;100003.70;1813196;78;20148;-69
2021/03/28 12:50:02;;;;;;;;;;;;;;;17.01;26.97;100002.91;1803390;78;20133;-67
2021/03/28 12:52:42;;;;;;;;;;;;;;;16.88;27.29;100000.86;1802166;78;20121;-67
2021/03/28 12:55:32;;;;;;;;;;;;;;;16.74;27.74;99993.13;1801821;78;20137;-66
2021/03/28 12:58:11;;;;;;;;;;;;;;;16.62;27.94;99999.89;1815579;78;20172;-67
2021/03/28 13:01:04;;;;;;;;;;;;;;;16.51;28.18;99995.80;1810099;78;20137;-66
2021/03/28 13:03:41;;;;;;;;;;;;;;;16.38;28.27;99996.39;1806091;78;20546;-68
2021/03/28 13:06:19;;;;;;;;;;;;;;;16.21;28.37;99996.19;1796877;78;20428;-68
2021/03/28 13:08:58;;;;;;;;;;;;;;;16.07;28.63;99993.27;1803191;78;20416;-65
2021/03/28 13:11:49;;;;;;;;;;;;;;;15.95;28.95;99996.00;1806527;78;20140;-67
2021/03/28 13:14:33;;;;;;;;;;;;;;;15.84;29.20;100000.40;1800489;78;20137;-67
2021/03/28 13:17:19;;;;;;;;;;;;;;;15.71;29.64;99992.45;1816320;78;20141;-67
2021/03/28 13:19:57;;;;;;;;;;;;;;;15.64;29.82;99994.14;1811069;78;20137;-67
2021/03/28 13:22:38;;;;;;;;;;;;;;;15.60;30.18;99989.31;1809217;78;20452;-66
2021/03/28 13:25:21;;;;;;;;;;;;;;;15.57;30.73;99983.02;1797040;78;20153;-67
2021/03/28 13:28:00;;;;;;;;;;;;;;;15.54;30.78;99984.17;1821981;78;20141;-69
2021/03/28 13:30:36;;;;;;;;;;;;;;;15.53;30.51;99974.53;1816888;78;20160;-69
2021/03/28 13:33:22;;;;;;;;;;;;;;;15.53;30.74;99980.69;1795925;79;20452;-68
2021/03/28 13:35:51;;;;;;;;;;;;;;;15.57;30.85;99980.34;1807198;78;20136;-65
2021/03/28 13:38:32;;;;;;;;;;;;;;;15.58;30.41;99980.18;1798456;78;20236;-66
2021/03/28 13:41:06;;;;;;;;;;;;;;;15.55;30.41;99979.19;1808088;78;20144;-67
2021/03/28 13:43:37;;;;;;;;;;;;;;;15.53;30.44;99970.02;1797815;78;20133;-67
2021/03/28 13:46:18;;;;;;;;;;;;;;;15.51;30.67;99969.37;1780432;78;20186;-68
2021/03/28 13:48:46;;;;;;;;;;;;;;;15.45;30.62;99971.40;1820899;78;20145;-67
2021/03/28 13:51:18;;;;;;;;;;;;;;;15.34;30.88;99967.27;1793459;79;20145;-68
2021/03/28 13:53:49;;;;;;;;;;;;;;;15.23;31.30;99970.30;1820607;78;20187;-68
2021/03/28 13:56:21;;;;;;;;;;;;;;;15.12;31.58;99965.34;1810590;78;20156;-69
2021/03/28 13:59:05;;;;;;;;;;;;;;;15.03;31.85;99961.04;1812210;78;20173;-67
2021/03/28 14:01:41;;;;;;;;;;;;;;;14.90;32.02;99958.39;1816394;78;20404;-66
2021/03/28 14:04:34;;;;;;;;;;;;;;;14.81;32.31;99957.25;1796719;79;20149;-65
2021/03/28 14:07:06;;;;;;;;;;;;;;;14.76;32.49;99961.77;1792558;78;20157;-69
2021/03/28 14:09:38;;;;;;;;;;;;;;;14.75;32.52;99956.09;1788203;78;20235;-69